createdAt,value
2023-03-23T15:59:06.253Z,16.02
2023-03-23T16:01:33.040Z,16.00
2023-03-23T16:04:07.607Z,15.98
2023-03-23T16:06:35.663Z,15.92
2023-03-23T16:09:03.588Z,15.88
2023-03-23T16:11:31.523Z,15.83
2023-03-23T16:13:58.580Z,15.81
2023-03-23T16:16:27.766Z,15.80
2023-03-23T16:18:54.422Z,15.76
2023-03-23T16:21:21.180Z,15.73
2023-03-23T16:23:47.666Z,15.74
2023-03-23T16:26:15.137Z,15.69
2023-03-23T16:28:42.181Z,15.65
2023-03-23T16:31:09.044Z,15.61
2023-03-23T16:33:35.691Z,15.61
2023-03-23T16:36:02.873Z,15.62
2023-03-23T16:38:29.426Z,15.54
2023-03-23T16:40:55.918Z,15.53
2023-03-23T16:43:22.643Z,15.54
2023-03-23T16:45:49.356Z,15.48
2023-03-23T16:48:16.962Z,15.46
2023-03-23T16:50:44.354Z,15.44
2023-03-23T16:53:11.154Z,15.41
2023-03-23T16:55:38.452Z,15.37
2023-03-23T16:58:16.273Z,15.37
2023-03-23T17:00:45.579Z,15.35
2023-03-23T17:03:13.323Z,15.25
2023-03-23T17:05:41.551Z,15.18
2023-03-23T17:08:08.190Z,15.11
2023-03-23T17:10:34.773Z,15.03
2023-03-23T17:13:01.869Z,14.93
2023-03-23T17:15:28.595Z,14.83
2023-03-23T17:17:55.383Z,14.75
2023-03-23T17:20:22.438Z,14.70
2023-03-23T17:22:49.411Z,14.69
2023-03-23T17:25:16.098Z,14.66
2023-03-23T17:27:42.897Z,14.64
2023-03-23T17:30:11.252Z,14.59
2023-03-23T17:32:38.298Z,14.55
2023-03-23T17:35:06.588Z,14.48
2023-03-23T17:37:33.345Z,14.42
2023-03-23T17:40:00.946Z,14.31
2023-03-23T17:42:27.637Z,14.32
2023-03-23T17:44:54.107Z,14.24
2023-03-23T17:47:20.857Z,14.17
2023-03-23T17:49:47.911Z,14.14
2023-03-23T17:52:14.708Z,14.07
2023-03-23T17:54:41.255Z,14.03
2023-03-23T17:57:08.292Z,13.94
2023-03-23T17:59:34.888Z,13.90
2023-03-23T18:02:01.436Z,13.93
2023-03-23T18:04:27.988Z,13.89
2023-03-23T18:06:56.609Z,13.90
2023-03-23T18:09:24.211Z,13.84
2023-03-23T18:11:51.284Z,13.85
2023-03-23T18:14:18.264Z,13.82
2023-03-23T18:16:44.993Z,13.77
2023-03-23T18:19:11.952Z,13.72
2023-03-23T18:21:38.989Z,13.64
2023-03-23T18:24:05.710Z,13.59
2023-03-23T18:26:32.243Z,13.56
2023-03-23T18:28:58.680Z,13.51
2023-03-23T18:31:25.426Z,13.50
2023-03-23T18:33:54.429Z,13.40
2023-03-23T18:36:24.299Z,13.40
2023-03-23T18:38:51.162Z,13.34
2023-03-23T18:41:18.362Z,13.44
2023-03-23T18:43:44.891Z,13.46
2023-03-23T18:46:11.397Z,13.38
2023-03-23T18:48:37.906Z,13.38
2023-03-23T18:51:04.592Z,13.22
2023-03-23T18:53:31.309Z,13.22
2023-03-23T18:56:09.717Z,13.11
2023-03-23T18:58:36.603Z,13.13
2023-03-23T19:01:07.033Z,13.23
2023-03-23T19:03:35.301Z,13.14
2023-03-23T19:06:02.213Z,13.15
2023-03-23T19:08:29.442Z,13.06
2023-03-23T19:10:59.888Z,13.01
2023-03-23T19:13:28.443Z,13.00
2023-03-23T19:15:55.183Z,12.94
2023-03-23T19:18:22.124Z,12.93
2023-03-23T19:23:22.207Z,12.98
2023-03-23T19:25:48.950Z,12.88
2023-03-23T19:30:47.422Z,12.86
2023-03-23T19:33:15.204Z,12.76
2023-03-23T19:35:42.030Z,12.70
2023-03-23T19:38:09.145Z,12.42
2023-03-23T19:40:41.474Z,12.42
2023-03-23T19:43:09.382Z,12.26
2023-03-23T19:45:36.941Z,12.21
2023-03-23T19:48:03.925Z,12.10
2023-03-23T19:50:31.760Z,12.12
2023-03-23T19:53:00.163Z,12.11
2023-03-23T19:55:27.314Z,12.15
2023-03-23T19:57:54.076Z,12.20
2023-03-23T20:00:20.823Z,12.24
2023-03-23T20:02:49.923Z,12.32
2023-03-23T20:05:16.606Z,12.39
2023-03-23T20:07:46.441Z,12.55
2023-03-23T20:10:16.391Z,12.77
2023-03-23T20:12:42.877Z,12.86
2023-03-23T20:15:09.534Z,12.85
2023-03-23T20:17:36.371Z,12.83
2023-03-23T20:20:06.351Z,12.87
2023-03-23T20:22:33.804Z,12.91
2023-03-23T20:25:00.759Z,12.91
2023-03-23T20:27:27.688Z,12.93
2023-03-23T20:29:57.327Z,12.78
2023-03-23T20:32:23.888Z,12.81
2023-03-23T20:34:50.431Z,12.81
2023-03-23T20:37:20.734Z,12.93
2023-03-23T20:39:48.715Z,12.86
2023-03-23T20:42:15.814Z,12.78
2023-03-23T20:44:42.910Z,12.78
2023-03-23T20:47:09.848Z,12.74
2023-03-23T20:49:37.886Z,12.71
2023-03-23T20:52:06.164Z,12.83
2023-03-23T20:54:32.847Z,12.90
2023-03-23T20:56:59.720Z,12.88
2023-03-23T20:59:26.608Z,12.73
2023-03-23T21:01:53.095Z,12.59
2023-03-23T21:04:23.128Z,12.54
2023-03-23T21:06:49.730Z,12.53
2023-03-23T21:09:17.305Z,12.71
2023-03-23T21:11:44.936Z,12.70
2023-03-23T21:14:11.775Z,12.68
2023-03-23T21:16:39.005Z,12.69
2023-03-23T21:19:06.012Z,12.64
2023-03-23T21:21:34.217Z,12.76
2023-03-23T21:24:01.112Z,12.63
2023-03-23T21:26:29.361Z,12.85
2023-03-23T21:28:59.763Z,12.70
2023-03-23T21:31:30.509Z,12.76
2023-03-23T21:33:58.094Z,12.88
2023-03-23T21:36:25.510Z,12.98
2023-03-23T21:38:52.854Z,12.98
2023-03-23T21:41:19.422Z,13.11
2023-03-23T21:43:46.915Z,13.03
2023-03-23T21:46:18.045Z,13.07
2023-03-23T21:48:51.261Z,12.97
2023-03-23T21:51:28.824Z,12.91
2023-03-23T21:53:56.254Z,12.89
2023-03-23T21:56:24.902Z,12.80
2023-03-23T21:58:51.675Z,12.81
2023-03-23T22:01:19.216Z,12.86
2023-03-23T22:03:45.876Z,12.71
2023-03-23T22:06:23.260Z,12.95
2023-03-23T22:08:50.083Z,13.06
2023-03-23T22:11:23.046Z,13.10
2023-03-23T22:13:50.366Z,13.07
2023-03-23T22:16:18.319Z,13.08
2023-03-23T22:18:46.305Z,13.29
2023-03-23T22:21:14.084Z,13.36
2023-03-23T22:23:41.126Z,13.41
2023-03-23T22:26:08.541Z,13.39
2023-03-23T22:28:37.113Z,13.43
2023-03-23T22:31:11.852Z,13.51
2023-03-23T22:33:38.667Z,13.41
2023-03-23T22:36:06.670Z,13.46
2023-03-23T22:38:34.789Z,13.52
2023-03-23T22:41:06.947Z,13.52
2023-03-23T22:43:37.008Z,13.52
2023-03-23T22:46:04.655Z,13.55
2023-03-23T22:48:31.604Z,13.51
2023-03-23T22:50:58.527Z,13.62
2023-03-23T22:53:25.930Z,13.59
2023-03-23T22:55:54.873Z,13.77
2023-03-23T22:58:21.808Z,13.67
2023-03-23T23:00:50.120Z,13.68
2023-03-23T23:03:17.262Z,13.67
2023-03-23T23:05:46.441Z,13.71
2023-03-23T23:08:14.628Z,13.69
2023-03-23T23:10:44.656Z,13.81
2023-03-23T23:13:12.852Z,13.74
2023-03-23T23:15:47.113Z,13.71
2023-03-23T23:18:13.874Z,13.75
2023-03-23T23:20:41.398Z,13.70
2023-03-23T23:23:08.211Z,13.74
2023-03-23T23:25:35.161Z,13.72
2023-03-23T23:28:03.661Z,13.82
2023-03-23T23:30:30.762Z,13.72
2023-03-23T23:32:58.812Z,13.60
2023-03-23T23:35:25.769Z,13.79
2023-03-23T23:37:52.577Z,13.63
2023-03-23T23:40:19.931Z,13.72
2023-03-23T23:42:49.133Z,13.70
2023-03-23T23:45:16.038Z,13.76
2023-03-23T23:47:42.585Z,13.84
2023-03-23T23:50:11.472Z,13.81
2023-03-23T23:52:38.983Z,13.63
2023-03-23T23:55:07.514Z,13.65
2023-03-23T23:57:34.440Z,13.64
